sensor_id;sensor_type;location;lat;lon;timestamp;temperature;humidity
14370;DHT22;7268;50.792;0.252;2023-05-10T00:01:52;11.70;97.30
14370;DHT22;7268;50.792;0.252;2023-05-10T00:04:19;11.70;97.00
14370;DHT22;7268;50.792;0.252;2023-05-10T00:06:46;11.70;96.90
14370;DHT22;7268;50.792;0.252;2023-05-10T00:09:16;11.60;96.60
14370;DHT22;7268;50.792;0.252;2023-05-10T00:11:46;11.60;96.10
14370;DHT22;7268;50.792;0.252;2023-05-10T00:14:15;11.60;96.10
14370;DHT22;7268;50.792;0.252;2023-05-10T00:16:42;11.60;95.90
14370;DHT22;7268;50.792;0.252;2023-05-10T00:19:09;11.70;95.90
14370;DHT22;7268;50.792;0.252;2023-05-10T00:21:36;11.70;95.30
14370;DHT22;7268;50.792;0.252;2023-05-10T00:24:05;11.70;95.00
14370;DHT22;7268;50.792;0.252;2023-05-10T00:26:32;11.70;95.00
14370;DHT22;7268;50.792;0.252;2023-05-10T00:28:59;11.70;94.90
14370;DHT22;7268;50.792;0.252;2023-05-10T00:31:29;11.70;94.80
14370;DHT22;7268;50.792;0.252;2023-05-10T00:33:56;11.80;94.60
14370;DHT22;7268;50.792;0.252;2023-05-10T00:36:23;11.80;94.50
14370;DHT22;7268;50.792;0.252;2023-05-10T00:38:50;11.80;94.40
14370;DHT22;7268;50.792;0.252;2023-05-10T00:41:17;11.80;94.40
14370;DHT22;7268;50.792;0.252;2023-05-10T00:43:44;11.80;94.20
14370;DHT22;7268;50.792;0.252;2023-05-10T00:46:11;11.80;94.20
14370;DHT22;7268;50.792;0.252;2023-05-10T00:48:38;11.80;94.20
14370;DHT22;7268;50.792;0.252;2023-05-10T00:51:05;11.90;94.10
14370;DHT22;7268;50.792;0.252;2023-05-10T00:53:34;12.00;94.10
14370;DHT22;7268;50.792;0.252;2023-05-10T00:56:01;11.90;94.00
14370;DHT22;7268;50.792;0.252;2023-05-10T00:58:29;11.90;93.90
14370;DHT22;7268;50.792;0.252;2023-05-10T01:00:58;11.90;93.70
14370;DHT22;7268;50.792;0.252;2023-05-10T01:03:27;11.90;93.60
14370;DHT22;7268;50.792;0.252;2023-05-10T01:05:57;12.00;93.40
14370;DHT22;7268;50.792;0.252;2023-05-10T01:08:25;12.00;93.60
14370;DHT22;7268;50.792;0.252;2023-05-10T01:11:00;12.00;93.40
14370;DHT22;7268;50.792;0.252;2023-05-10T01:13:36;12.00;93.30
14370;DHT22;7268;50.792;0.252;2023-05-10T01:16:08;12.00;93.30
14370;DHT22;7268;50.792;0.252;2023-05-10T01:18:41;12.00;93.20
14370;DHT22;7268;50.792;0.252;2023-05-10T01:21:27;12.00;93.20
14370;DHT22;7268;50.792;0.252;2023-05-10T01:35:19;12.00;93.40
14370;DHT22;7268;50.792;0.252;2023-05-10T01:38:16;12.00;93.60
14370;DHT22;7268;50.792;0.252;2023-05-10T01:41:01;11.90;93.60
14370;DHT22;7268;50.792;0.252;2023-05-10T01:43:48;11.90;93.80
14370;DHT22;7268;50.792;0.252;2023-05-10T01:46:27;11.90;93.80
14370;DHT22;7268;50.792;0.252;2023-05-10T01:48:57;11.90;94.00
14370;DHT22;7268;50.792;0.252;2023-05-10T01:51:38;11.80;94.00
14370;DHT22;7268;50.792;0.252;2023-05-10T01:54:09;11.80;94.20
14370;DHT22;7268;50.792;0.252;2023-05-10T01:56:37;11.80;94.10
14370;DHT22;7268;50.792;0.252;2023-05-10T01:59:08;11.80;94.20
14370;DHT22;7268;50.792;0.252;2023-05-10T02:01:37;11.80;94.30
14370;DHT22;7268;50.792;0.252;2023-05-10T02:04:07;11.90;94.20
14370;DHT22;7268;50.792;0.252;2023-05-10T02:06:35;11.90;94.20
14370;DHT22;7268;50.792;0.252;2023-05-10T02:09:03;11.90;94.10
14370;DHT22;7268;50.792;0.252;2023-05-10T02:11:31;11.90;94.10
14370;DHT22;7268;50.792;0.252;2023-05-10T02:14:00;11.80;94.10
14370;DHT22;7268;50.792;0.252;2023-05-10T02:16:28;11.90;94.20
14370;DHT22;7268;50.792;0.252;2023-05-10T02:18:59;11.90;94.40
14370;DHT22;7268;50.792;0.252;2023-05-10T02:21:29;11.90;94.00
14370;DHT22;7268;50.792;0.252;2023-05-10T02:23:58;11.80;94.10
14370;DHT22;7268;50.792;0.252;2023-05-10T02:26:26;11.90;94.20
14370;DHT22;7268;50.792;0.252;2023-05-10T02:28:54;11.90;94.20
14370;DHT22;7268;50.792;0.252;2023-05-10T02:31:23;11.80;94.30
14370;DHT22;7268;50.792;0.252;2023-05-10T02:33:50;11.80;94.20
14370;DHT22;7268;50.792;0.252;2023-05-10T02:36:19;11.80;94.40
14370;DHT22;7268;50.792;0.252;2023-05-10T02:38:48;11.80;94.30
14370;DHT22;7268;50.792;0.252;2023-05-10T02:41:18;11.90;94.40
14370;DHT22;7268;50.792;0.252;2023-05-10T02:43:50;11.80;94.40
14370;DHT22;7268;50.792;0.252;2023-05-10T02:46:21;11.80;94.50
14370;DHT22;7268;50.792;0.252;2023-05-10T02:48:48;11.80;94.60
14370;DHT22;7268;50.792;0.252;2023-05-10T02:51:18;11.80;94.60
14370;DHT22;7268;50.792;0.252;2023-05-10T02:53:46;11.80;94.60
14370;DHT22;7268;50.792;0.252;2023-05-10T02:56:23;11.90;94.60
14370;DHT22;7268;50.792;0.252;2023-05-10T02:58:52;11.80;94.70
14370;DHT22;7268;50.792;0.252;2023-05-10T03:01:19;11.80;94.80
14370;DHT22;7268;50.792;0.252;2023-05-10T03:03:46;11.80;94.90
14370;DHT22;7268;50.792;0.252;2023-05-10T03:06:13;11.80;94.90
14370;DHT22;7268;50.792;0.252;2023-05-10T03:08:40;11.80;94.90
14370;DHT22;7268;50.792;0.252;2023-05-10T03:17:06;11.70;95.20
14370;DHT22;7268;50.792;0.252;2023-05-10T03:19:54;11.70;95.20
14370;DHT22;7268;50.792;0.252;2023-05-10T03:22:34;11.70;95.40
14370;DHT22;7268;50.792;0.252;2023-05-10T03:25:06;11.70;95.40
14370;DHT22;7268;50.792;0.252;2023-05-10T03:27:34;11.70;95.40
14370;DHT22;7268;50.792;0.252;2023-05-10T03:30:03;11.70;95.50
14370;DHT22;7268;50.792;0.252;2023-05-10T03:32:30;11.60;95.60
14370;DHT22;7268;50.792;0.252;2023-05-10T03:35:05;11.60;95.60
14370;DHT22;7268;50.792;0.252;2023-05-10T03:37:32;11.70;95.70
14370;DHT22;7268;50.792;0.252;2023-05-10T03:39:59;11.60;95.80
14370;DHT22;7268;50.792;0.252;2023-05-10T03:42:27;11.60;95.90
14370;DHT22;7268;50.792;0.252;2023-05-10T03:44:54;11.60;95.90
14370;DHT22;7268;50.792;0.252;2023-05-10T03:47:25;11.60;96.00
14370;DHT22;7268;50.792;0.252;2023-05-10T03:49:52;11.60;96.10
14370;DHT22;7268;50.792;0.252;2023-05-10T03:52:19;11.60;96.10
14370;DHT22;7268;50.792;0.252;2023-05-10T03:54:48;11.60;96.20
14370;DHT22;7268;50.792;0.252;2023-05-10T03:57:18;11.50;96.10
14370;DHT22;7268;50.792;0.252;2023-05-10T03:59:45;11.60;96.10
14370;DHT22;7268;50.792;0.252;2023-05-10T04:02:16;11.60;96.20
14370;DHT22;7268;50.792;0.252;2023-05-10T04:04:43;11.60;96.20
14370;DHT22;7268;50.792;0.252;2023-05-10T04:07:10;11.60;96.20
14370;DHT22;7268;50.792;0.252;2023-05-10T04:09:40;11.50;96.20
14370;DHT22;7268;50.792;0.252;2023-05-10T04:12:06;11.60;96.40
14370;DHT22;7268;50.792;0.252;2023-05-10T04:14:36;11.60;96.30
14370;DHT22;7268;50.792;0.252;2023-05-10T04:17:03;11.60;96.30
14370;DHT22;7268;50.792;0.252;2023-05-10T04:19:31;11.60;96.20
14370;DHT22;7268;50.792;0.252;2023-05-10T04:21:58;11.50;96.30
14370;DHT22;7268;50.792;0.252;2023-05-10T04:24:28;11.50;96.30
14370;DHT22;7268;50.792;0.252;2023-05-10T04:26:57;11.60;96.20
14370;DHT22;7268;50.792;0.252;2023-05-10T04:29:31;11.60;96.30
14370;DHT22;7268;50.792;0.252;2023-05-10T04:31:58;11.60;96.30
14370;DHT22;7268;50.792;0.252;2023-05-10T04:34:27;11.50;96.30
14370;DHT22;7268;50.792;0.252;2023-05-10T04:36:57;11.60;96.30
14370;DHT22;7268;50.792;0.252;2023-05-10T04:39:23;11.50;96.40
14370;DHT22;7268;50.792;0.252;2023-05-10T04:41:50;11.60;96.40
14370;DHT22;7268;50.792;0.252;2023-05-10T04:44:20;11.60;96.30
14370;DHT22;7268;50.792;0.252;2023-05-10T04:46:49;11.60;96.20
14370;DHT22;7268;50.792;0.252;2023-05-10T04:49:16;11.50;96.10
14370;DHT22;7268;50.792;0.252;2023-05-10T04:51:47;11.60;96.20
14370;DHT22;7268;50.792;0.252;2023-05-10T04:54:23;11.60;96.10
14370;DHT22;7268;50.792;0.252;2023-05-10T04:56:50;11.60;96.10
14370;DHT22;7268;50.792;0.252;2023-05-10T04:59:19;11.60;96.00
14370;DHT22;7268;50.792;0.252;2023-05-10T05:01:46;11.60;95.90
14370;DHT22;7268;50.792;0.252;2023-05-10T05:04:13;11.70;96.00
14370;DHT22;7268;50.792;0.252;2023-05-10T05:06:40;11.70;96.00
14370;DHT22;7268;50.792;0.252;2023-05-10T05:09:07;11.70;95.80
14370;DHT22;7268;50.792;0.252;2023-05-10T05:11:37;11.80;95.70
14370;DHT22;7268;50.792;0.252;2023-05-10T05:14:06;11.80;95.70
14370;DHT22;7268;50.792;0.252;2023-05-10T05:16:36;11.80;95.70
14370;DHT22;7268;50.792;0.252;2023-05-10T05:19:06;11.70;95.60
14370;DHT22;7268;50.792;0.252;2023-05-10T05:21:33;11.80;95.50
14370;DHT22;7268;50.792;0.252;2023-05-10T05:23:59;11.80;95.50
14370;DHT22;7268;50.792;0.252;2023-05-10T05:26:27;11.90;95.40
14370;DHT22;7268;50.792;0.252;2023-05-10T05:28:54;11.80;95.50
14370;DHT22;7268;50.792;0.252;2023-05-10T05:31:21;11.80;95.50
14370;DHT22;7268;50.792;0.252;2023-05-10T05:33:48;11.80;95.40
14370;DHT22;7268;50.792;0.252;2023-05-10T05:36:15;11.80;95.30
14370;DHT22;7268;50.792;0.252;2023-05-10T05:38:42;11.80;95.30
14370;DHT22;7268;50.792;0.252;2023-05-10T05:41:09;11.80;95.30
14370;DHT22;7268;50.792;0.252;2023-05-10T05:43:36;11.80;95.30
14370;DHT22;7268;50.792;0.252;2023-05-10T05:46:04;11.80;95.20
14370;DHT22;7268;50.792;0.252;2023-05-10T05:48:31;11.80;95.20
14370;DHT22;7268;50.792;0.252;2023-05-10T05:50:58;11.80;95.10
14370;DHT22;7268;50.792;0.252;2023-05-10T05:53:28;11.80;95.10
14370;DHT22;7268;50.792;0.252;2023-05-10T05:55:58;11.90;94.80
14370;DHT22;7268;50.792;0.252;2023-05-10T05:58:25;11.80;94.70
14370;DHT22;7268;50.792;0.252;2023-05-10T06:00:55;11.90;94.60
14370;DHT22;7268;50.792;0.252;2023-05-10T06:03:24;11.90;94.60
14370;DHT22;7268;50.792;0.252;2023-05-10T06:05:52;11.90;94.50
14370;DHT22;7268;50.792;0.252;2023-05-10T06:08:21;12.00;94.50
14370;DHT22;7268;50.792;0.252;2023-05-10T06:10:49;12.10;94.20
14370;DHT22;7268;50.792;0.252;2023-05-10T06:13:16;12.20;94.10
14370;DHT22;7268;50.792;0.252;2023-05-10T06:15:43;12.30;93.60
14370;DHT22;7268;50.792;0.252;2023-05-10T06:18:10;12.40;93.20
14370;DHT22;7268;50.792;0.252;2023-05-10T06:20:37;12.40;93.00
14370;DHT22;7268;50.792;0.252;2023-05-10T06:23:04;12.30;93.00
14370;DHT22;7268;50.792;0.252;2023-05-10T06:25:31;12.20;92.80
14370;DHT22;7268;50.792;0.252;2023-05-10T06:27:57;12.10;92.90
14370;DHT22;7268;50.792;0.252;2023-05-10T06:30:25;12.10;92.80
14370;DHT22;7268;50.792;0.252;2023-05-10T06:32:56;12.20;92.80
14370;DHT22;7268;50.792;0.252;2023-05-10T06:35:23;12.60;92.80
14370;DHT22;7268;50.792;0.252;2023-05-10T06:37:50;13.00;91.40
14370;DHT22;7268;50.792;0.252;2023-05-10T06:40:18;13.00;91.00
14370;DHT22;7268;50.792;0.252;2023-05-10T06:42:45;12.90;91.00
14370;DHT22;7268;50.792;0.252;2023-05-10T06:45:13;12.90;90.90
14370;DHT22;7268;50.792;0.252;2023-05-10T06:47:42;12.90;90.90
14370;DHT22;7268;50.792;0.252;2023-05-10T06:50:09;12.90;91.10
14370;DHT22;7268;50.792;0.252;2023-05-10T06:52:36;13.10;90.60
14370;DHT22;7268;50.792;0.252;2023-05-10T06:55:04;13.60;90.20
14370;DHT22;7268;50.792;0.252;2023-05-10T06:57:31;14.40;87.50
14370;DHT22;7268;50.792;0.252;2023-05-10T06:59:58;15.40;83.20
14370;DHT22;7268;50.792;0.252;2023-05-10T07:02:25;16.30;78.90
14370;DHT22;7268;50.792;0.252;2023-05-10T07:04:53;17.00;75.10
14370;DHT22;7268;50.792;0.252;2023-05-10T07:07:20;17.00;73.30
14370;DHT22;7268;50.792;0.252;2023-05-10T07:09:47;16.70;74.20
14370;DHT22;7268;50.792;0.252;2023-05-10T07:12:15;17.20;74.00
14370;DHT22;7268;50.792;0.252;2023-05-10T07:14:42;18.20;69.40
14370;DHT22;7268;50.792;0.252;2023-05-10T07:17:09;19.40;65.30
14370;DHT22;7268;50.792;0.252;2023-05-10T07:19:36;19.60;63.90
14370;DHT22;7268;50.792;0.252;2023-05-10T07:22:03;20.00;62.70
14370;DHT22;7268;50.792;0.252;2023-05-10T07:24:30;20.30;61.00
14370;DHT22;7268;50.792;0.252;2023-05-10T07:26:58;20.50;60.70
14370;DHT22;7268;50.792;0.252;2023-05-10T07:29:25;21.10;58.30
14370;DHT22;7268;50.792;0.252;2023-05-10T07:31:51;21.50;57.30
14370;DHT22;7268;50.792;0.252;2023-05-10T07:34:18;21.60;57.10
14370;DHT22;7268;50.792;0.252;2023-05-10T07:36:45;21.30;57.10
14370;DHT22;7268;50.792;0.252;2023-05-10T07:39:13;21.40;57.60
14370;DHT22;7268;50.792;0.252;2023-05-10T07:41:50;21.90;57.00
14370;DHT22;7268;50.792;0.252;2023-05-10T07:44:17;22.10;55.40
14370;DHT22;7268;50.792;0.252;2023-05-10T07:46:46;22.10;55.60
14370;DHT22;7268;50.792;0.252;2023-05-10T07:49:13;21.80;55.90
14370;DHT22;7268;50.792;0.252;2023-05-10T07:51:40;22.00;54.60
14370;DHT22;7268;50.792;0.252;2023-05-10T07:54:07;22.40;53.90
14370;DHT22;7268;50.792;0.252;2023-05-10T07:56:34;22.80;53.80
14370;DHT22;7268;50.792;0.252;2023-05-10T07:59:03;23.70;53.90
14370;DHT22;7268;50.792;0.252;2023-05-10T08:01:31;24.10;51.80
14370;DHT22;7268;50.792;0.252;2023-05-10T08:03:59;24.80;48.40
14370;DHT22;7268;50.792;0.252;2023-05-10T08:06:27;24.00;49.90
14370;DHT22;7268;50.792;0.252;2023-05-10T08:08:56;23.50;51.60
14370;DHT22;7268;50.792;0.252;2023-05-10T08:11:23;24.60;51.40
14370;DHT22;7268;50.792;0.252;2023-05-10T08:13:51;25.40;49.20
14370;DHT22;7268;50.792;0.252;2023-05-10T08:16:18;25.50;47.90
14370;DHT22;7268;50.792;0.252;2023-05-10T08:18:46;25.10;47.70
14370;DHT22;7268;50.792;0.252;2023-05-10T08:21:14;25.30;48.60
14370;DHT22;7268;50.792;0.252;2023-05-10T08:23:43;24.20;50.40
14370;DHT22;7268;50.792;0.252;2023-05-10T08:26:13;22.70;54.60
14370;DHT22;7268;50.792;0.252;2023-05-10T08:28:39;22.90;55.50
14370;DHT22;7268;50.792;0.252;2023-05-10T08:31:06;22.60;55.40
14370;DHT22;7268;50.792;0.252;2023-05-10T08:33:33;23.20;55.40
14370;DHT22;7268;50.792;0.252;2023-05-10T08:36:00;23.40;53.80
14370;DHT22;7268;50.792;0.252;2023-05-10T08:38:27;23.90;52.40
14370;DHT22;7268;50.792;0.252;2023-05-10T08:40:55;24.00;52.70
14370;DHT22;7268;50.792;0.252;2023-05-10T08:43:31;23.30;52.70
14370;DHT22;7268;50.792;0.252;2023-05-10T08:46:01;22.90;55.60
14370;DHT22;7268;50.792;0.252;2023-05-10T08:48:33;22.60;56.10
14370;DHT22;7268;50.792;0.252;2023-05-10T08:51:02;23.20;54.80
14370;DHT22;7268;50.792;0.252;2023-05-10T08:53:31;23.50;52.90
14370;DHT22;7268;50.792;0.252;2023-05-10T08:56:01;22.10;56.20
14370;DHT22;7268;50.792;0.252;2023-05-10T08:58:29;22.10;56.80
14370;DHT22;7268;50.792;0.252;2023-05-10T09:00:57;22.50;56.50
14370;DHT22;7268;50.792;0.252;2023-05-10T09:03:24;23.80;54.50
14370;DHT22;7268;50.792;0.252;2023-05-10T09:05:51;24.30;52.50
14370;DHT22;7268;50.792;0.252;2023-05-10T09:08:20;23.90;51.50
14370;DHT22;7268;50.792;0.252;2023-05-10T09:10:49;23.80;52.50
14370;DHT22;7268;50.792;0.252;2023-05-10T09:13:17;23.10;54.30
14370;DHT22;7268;50.792;0.252;2023-05-10T09:15:45;23.00;55.30
14370;DHT22;7268;50.792;0.252;2023-05-10T09:18:15;24.00;54.50
14370;DHT22;7268;50.792;0.252;2023-05-10T09:20:43;25.00;52.40
14370;DHT22;7268;50.792;0.252;2023-05-10T09:23:12;26.10;49.90
14370;DHT22;7268;50.792;0.252;2023-05-10T09:25:41;24.90;50.80
14370;DHT22;7268;50.792;0.252;2023-05-10T09:28:09;24.90;50.50
14370;DHT22;7268;50.792;0.252;2023-05-10T09:30:36;25.60;50.60
14370;DHT22;7268;50.792;0.252;2023-05-10T09:33:03;25.20;50.50
14370;DHT22;7268;50.792;0.252;2023-05-10T09:35:32;24.50;52.10
14370;DHT22;7268;50.792;0.252;2023-05-10T09:38:02;24.30;53.00
14370;DHT22;7268;50.792;0.252;2023-05-10T09:40:30;24.00;52.80
14370;DHT22;7268;50.792;0.252;2023-05-10T09:43:06;23.20;54.40
14370;DHT22;7268;50.792;0.252;2023-05-10T09:45:35;23.70;53.70
14370;DHT22;7268;50.792;0.252;2023-05-10T09:48:05;24.20;54.00
14370;DHT22;7268;50.792;0.252;2023-05-10T09:50:33;23.60;53.70
14370;DHT22;7268;50.792;0.252;2023-05-10T09:53:02;24.70;52.60
14370;DHT22;7268;50.792;0.252;2023-05-10T09:58:02;24.40;53.40
14370;DHT22;7268;50.792;0.252;2023-05-10T10:00:36;23.90;53.10
14370;DHT22;7268;50.792;0.252;2023-05-10T10:03:03;24.10;52.40
14370;DHT22;7268;50.792;0.252;2023-05-10T10:05:32;24.70;52.40
14370;DHT22;7268;50.792;0.252;2023-05-10T10:08:01;25.80;50.50
14370;DHT22;7268;50.792;0.252;2023-05-10T10:10:29;26.00;47.70
14370;DHT22;7268;50.792;0.252;2023-05-10T10:12:57;26.00;49.50
14370;DHT22;7268;50.792;0.252;2023-05-10T10:15:26;25.60;49.60
14370;DHT22;7268;50.792;0.252;2023-05-10T10:17:54;24.70;51.80
14370;DHT22;7268;50.792;0.252;2023-05-10T10:20:22;24.10;53.50
14370;DHT22;7268;50.792;0.252;2023-05-10T10:22:49;23.80;53.20
14370;DHT22;7268;50.792;0.252;2023-05-10T10:25:17;24.10;55.20
14370;DHT22;7268;50.792;0.252;2023-05-10T10:36:15;25.50;52.10
14370;DHT22;7268;50.792;0.252;2023-05-10T10:41:34;24.80;52.00
14370;DHT22;7268;50.792;0.252;2023-05-10T10:49:37;24.70;52.20
14370;DHT22;7268;50.792;0.252;2023-05-10T10:52:31;24.40;52.00
14370;DHT22;7268;50.792;0.252;2023-05-10T11:00:40;26.00;50.60
14370;DHT22;7268;50.792;0.252;2023-05-10T11:03:11;24.80;50.70
14370;DHT22;7268;50.792;0.252;2023-05-10T11:05:47;23.20;54.60
14370;DHT22;7268;50.792;0.252;2023-05-10T11:13:33;21.30;60.30
14370;DHT22;7268;50.792;0.252;2023-05-10T11:16:16;23.00;57.00
14370;DHT22;7268;50.792;0.252;2023-05-10T11:19:04;24.30;54.60
14370;DHT22;7268;50.792;0.252;2023-05-10T11:21:32;25.20;52.30
14370;DHT22;7268;50.792;0.252;2023-05-10T11:24:02;24.50;51.00
14370;DHT22;7268;50.792;0.252;2023-05-10T11:26:34;22.60;56.10
14370;DHT22;7268;50.792;0.252;2023-05-10T11:29:02;22.90;55.60
14370;DHT22;7268;50.792;0.252;2023-05-10T11:31:31;22.30;56.00
14370;DHT22;7268;50.792;0.252;2023-05-10T11:33:59;21.30;59.50
14370;DHT22;7268;50.792;0.252;2023-05-10T11:36:35;19.80;62.00
14370;DHT22;7268;50.792;0.252;2023-05-10T11:39:03;19.10;65.90
14370;DHT22;7268;50.792;0.252;2023-05-10T11:41:30;18.70;67.00
14370;DHT22;7268;50.792;0.252;2023-05-10T11:43:58;18.20;70.70
14370;DHT22;7268;50.792;0.252;2023-05-10T11:46:26;17.90;70.40
14370;DHT22;7268;50.792;0.252;2023-05-10T11:48:58;17.80;70.30
14370;DHT22;7268;50.792;0.252;2023-05-10T11:51:27;18.00;70.70
14370;DHT22;7268;50.792;0.252;2023-05-10T11:53:55;19.30;67.30
14370;DHT22;7268;50.792;0.252;2023-05-10T11:56:23;21.10;60.70
14370;DHT22;7268;50.792;0.252;2023-05-10T11:58:55;22.00;59.60
14370;DHT22;7268;50.792;0.252;2023-05-10T12:01:26;22.60;56.90
14370;DHT22;7268;50.792;0.252;2023-05-10T12:03:54;23.20;55.90
14370;DHT22;7268;50.792;0.252;2023-05-10T12:06:22;23.40;54.50
14370;DHT22;7268;50.792;0.252;2023-05-10T12:08:49;23.30;53.90
14370;DHT22;7268;50.792;0.252;2023-05-10T12:11:19;23.10;55.90
14370;DHT22;7268;50.792;0.252;2023-05-10T12:13:48;22.90;55.40
14370;DHT22;7268;50.792;0.252;2023-05-10T12:16:21;23.20;56.10
14370;DHT22;7268;50.792;0.252;2023-05-10T12:18:49;23.40;54.70
14370;DHT22;7268;50.792;0.252;2023-05-10T12:21:22;22.00;57.90
14370;DHT22;7268;50.792;0.252;2023-05-10T12:23:52;20.80;61.50
14370;DHT22;7268;50.792;0.252;2023-05-10T12:26:22;20.70;60.70
14370;DHT22;7268;50.792;0.252;2023-05-10T12:28:49;21.50;60.70
14370;DHT22;7268;50.792;0.252;2023-05-10T12:31:17;21.40;58.60
14370;DHT22;7268;50.792;0.252;2023-05-10T12:33:46;22.20;58.00
14370;DHT22;7268;50.792;0.252;2023-05-10T12:36:15;23.10;56.40
14370;DHT22;7268;50.792;0.252;2023-05-10T12:38:46;23.30;55.00
14370;DHT22;7268;50.792;0.252;2023-05-10T12:41:18;22.80;57.70
14370;DHT22;7268;50.792;0.252;2023-05-10T12:43:45;22.30;58.20
14370;DHT22;7268;50.792;0.252;2023-05-10T12:46:13;22.60;58.00
14370;DHT22;7268;50.792;0.252;2023-05-10T12:48:42;22.80;57.60
14370;DHT22;7268;50.792;0.252;2023-05-10T12:51:09;22.80;56.40
14370;DHT22;7268;50.792;0.252;2023-05-10T12:53:39;21.30;59.70
14370;DHT22;7268;50.792;0.252;2023-05-10T12:56:10;20.20;62.40
14370;DHT22;7268;50.792;0.252;2023-05-10T12:58:38;20.30;64.00
14370;DHT22;7268;50.792;0.252;2023-05-10T13:01:05;20.80;63.30
14370;DHT22;7268;50.792;0.252;2023-05-10T13:03:32;21.40;60.00
14370;DHT22;7268;50.792;0.252;2023-05-10T13:05:59;20.30;62.80
14370;DHT22;7268;50.792;0.252;2023-05-10T13:08:26;20.60;64.10
14370;DHT22;7268;50.792;0.252;2023-05-10T13:10:53;19.60;65.00
14370;DHT22;7268;50.792;0.252;2023-05-10T13:13:20;19.40;66.80
14370;DHT22;7268;50.792;0.252;2023-05-10T13:15:50;19.40;66.60
14370;DHT22;7268;50.792;0.252;2023-05-10T13:18:16;19.60;66.80
14370;DHT22;7268;50.792;0.252;2023-05-10T13:20:43;19.60;67.70
14370;DHT22;7268;50.792;0.252;2023-05-10T13:23:11;19.50;67.20
14370;DHT22;7268;50.792;0.252;2023-05-10T13:25:37;18.70;67.00
14370;DHT22;7268;50.792;0.252;2023-05-10T13:28:04;18.30;69.80
14370;DHT22;7268;50.792;0.252;2023-05-10T13:30:31;18.20;70.30
14370;DHT22;7268;50.792;0.252;2023-05-10T13:32:58;18.10;71.10
14370;DHT22;7268;50.792;0.252;2023-05-10T13:35:25;18.10;71.70
14370;DHT22;7268;50.792;0.252;2023-05-10T13:37:52;18.30;71.80
14370;DHT22;7268;50.792;0.252;2023-05-10T13:40:20;18.70;70.20
14370;DHT22;7268;50.792;0.252;2023-05-10T13:42:46;18.40;68.80
14370;DHT22;7268;50.792;0.252;2023-05-10T13:45:13;18.30;72.10
14370;DHT22;7268;50.792;0.252;2023-05-10T13:47:40;18.30;71.70
14370;DHT22;7268;50.792;0.252;2023-05-10T13:50:07;18.20;69.50
14370;DHT22;7268;50.792;0.252;2023-05-10T13:52:34;18.20;70.40
14370;DHT22;7268;50.792;0.252;2023-05-10T13:55:02;18.00;71.90
14370;DHT22;7268;50.792;0.252;2023-05-10T13:57:29;18.10;71.30
14370;DHT22;7268;50.792;0.252;2023-05-10T13:59:56;18.30;71.50
14370;DHT22;7268;50.792;0.252;2023-05-10T14:02:23;18.70;70.40
14370;DHT22;7268;50.792;0.252;2023-05-10T14:04:51;18.90;70.70
14370;DHT22;7268;50.792;0.252;2023-05-10T14:07:18;18.50;70.10
14370;DHT22;7268;50.792;0.252;2023-05-10T14:09:45;18.20;69.90
14370;DHT22;7268;50.792;0.252;2023-05-10T14:12:11;18.00;72.40
14370;DHT22;7268;50.792;0.252;2023-05-10T14:14:38;17.60;72.90
14370;DHT22;7268;50.792;0.252;2023-05-10T14:17:05;17.70;73.30
14370;DHT22;7268;50.792;0.252;2023-05-10T14:19:32;17.90;73.20
14370;DHT22;7268;50.792;0.252;2023-05-10T14:22:01;17.90;72.60
14370;DHT22;7268;50.792;0.252;2023-05-10T14:24:29;17.80;72.30
14370;DHT22;7268;50.792;0.252;2023-05-10T14:26:56;17.70;73.90
14370;DHT22;7268;50.792;0.252;2023-05-10T14:29:23;17.40;73.80
14370;DHT22;7268;50.792;0.252;2023-05-10T14:31:52;17.10;75.10
14370;DHT22;7268;50.792;0.252;2023-05-10T14:34:19;17.10;75.30
14370;DHT22;7268;50.792;0.252;2023-05-10T14:36:46;16.80;76.60
14370;DHT22;7268;50.792;0.252;2023-05-10T14:39:13;16.70;75.60
14370;DHT22;7268;50.792;0.252;2023-05-10T14:41:40;16.80;76.40
14370;DHT22;7268;50.792;0.252;2023-05-10T14:44:11;16.60;76.40
14370;DHT22;7268;50.792;0.252;2023-05-10T14:46:38;16.40;77.30
14370;DHT22;7268;50.792;0.252;2023-05-10T14:49:06;16.40;77.10
14370;DHT22;7268;50.792;0.252;2023-05-10T14:51:33;16.40;77.40
14370;DHT22;7268;50.792;0.252;2023-05-10T14:54:05;16.30;78.10
14370;DHT22;7268;50.792;0.252;2023-05-10T14:56:32;16.70;78.00
14370;DHT22;7268;50.792;0.252;2023-05-10T14:59:01;17.20;75.60
14370;DHT22;7268;50.792;0.252;2023-05-10T15:01:31;17.50;74.10
14370;DHT22;7268;50.792;0.252;2023-05-10T15:04:03;17.80;73.70
14370;DHT22;7268;50.792;0.252;2023-05-10T15:06:33;17.60;72.50
14370;DHT22;7268;50.792;0.252;2023-05-10T15:09:01;17.40;73.70
14370;DHT22;7268;50.792;0.252;2023-05-10T15:11:28;17.60;72.70
14370;DHT22;7268;50.792;0.252;2023-05-10T15:13:55;17.80;74.10
14370;DHT22;7268;50.792;0.252;2023-05-10T15:16:26;18.10;72.60
14370;DHT22;7268;50.792;0.252;2023-05-10T15:18:53;18.20;71.10
14370;DHT22;7268;50.792;0.252;2023-05-10T15:21:20;17.90;70.30
14370;DHT22;7268;50.792;0.252;2023-05-10T15:23:47;17.40;72.20
14370;DHT22;7268;50.792;0.252;2023-05-10T15:26:16;17.00;73.00
14370;DHT22;7268;50.792;0.252;2023-05-10T15:28:45;16.90;75.00
14370;DHT22;7268;50.792;0.252;2023-05-10T15:31:12;16.80;74.20
14370;DHT22;7268;50.792;0.252;2023-05-10T15:33:39;16.80;75.00
14370;DHT22;7268;50.792;0.252;2023-05-10T15:36:08;16.50;76.20
14370;DHT22;7268;50.792;0.252;2023-05-10T15:38:36;16.30;76.60
14370;DHT22;7268;50.792;0.252;2023-05-10T15:41:03;16.30;77.10
14370;DHT22;7268;50.792;0.252;2023-05-10T15:43:30;16.20;77.70
14370;DHT22;7268;50.792;0.252;2023-05-10T15:45:57;16.10;77.90
14370;DHT22;7268;50.792;0.252;2023-05-10T15:48:24;15.90;77.30
14370;DHT22;7268;50.792;0.252;2023-05-10T15:50:50;16.00;78.40
14370;DHT22;7268;50.792;0.252;2023-05-10T15:53:17;16.00;77.10
14370;DHT22;7268;50.792;0.252;2023-05-10T15:55:44;16.00;77.10
14370;DHT22;7268;50.792;0.252;2023-05-10T15:58:11;16.10;77.50
14370;DHT22;7268;50.792;0.252;2023-05-10T16:00:38;16.30;77.70
14370;DHT22;7268;50.792;0.252;2023-05-10T16:03:04;16.40;75.80
14370;DHT22;7268;50.792;0.252;2023-05-10T16:05:32;16.30;75.60
14370;DHT22;7268;50.792;0.252;2023-05-10T16:08:02;16.40;77.30
14370;DHT22;7268;50.792;0.252;2023-05-10T16:10:32;16.30;77.30
14370;DHT22;7268;50.792;0.252;2023-05-10T16:12:59;16.40;77.10
14370;DHT22;7268;50.792;0.252;2023-05-10T16:15:27;16.10;77.50
14370;DHT22;7268;50.792;0.252;2023-05-10T16:17:54;16.00;78.10
14370;DHT22;7268;50.792;0.252;2023-05-10T16:20:22;15.80;78.50
14370;DHT22;7268;50.792;0.252;2023-05-10T16:22:49;15.90;78.70
14370;DHT22;7268;50.792;0.252;2023-05-10T16:25:16;15.80;79.60
14370;DHT22;7268;50.792;0.252;2023-05-10T16:27:44;15.80;79.10
14370;DHT22;7268;50.792;0.252;2023-05-10T16:30:11;15.70;79.10
14370;DHT22;7268;50.792;0.252;2023-05-10T16:32:38;15.80;80.00
14370;DHT22;7268;50.792;0.252;2023-05-10T16:35:05;15.60;80.10
14370;DHT22;7268;50.792;0.252;2023-05-10T16:37:32;15.60;80.40
14370;DHT22;7268;50.792;0.252;2023-05-10T16:39:59;15.60;82.00
14370;DHT22;7268;50.792;0.252;2023-05-10T16:42:26;15.60;81.60